Time;durP1;ratioP1;P1;durP2;ratioP2;P2;SDS_P1;SDS_P2;PMS_P1;PMS_P2;Temp;Humidity;BMP_temperature;BMP_pressure;BME280_temperature;BME280_humidity;BME280_pressure;Samples;Min_cycle;Max_cycle;Signal;HPM_P1;HPM_P2
2023/07/06 00:00:36;;;;;;;3.50;3.20;;;;;;;;;;5014651;28;20030;-69
2023/07/06 00:03:03;;;;;;;3.42;3.10;;;;;;;;;;4996810;28;20172;-69
2023/07/06 00:05:29;;;;;;;2.80;2.60;;;;;;;;;;5014671;28;20034;-69
2023/07/06 00:07:56;;;;;;;3.78;2.55;;;;;;;;;;5014709;28;20088;-69
2023/07/06 00:10:22;;;;;;;4.57;3.60;;;;;;;;;;5013621;28;20052;-68
2023/07/06 00:12:47;;;;;;;3.85;3.20;;;;;;;;;;5014333;28;20030;-70
2023/07/06 00:15:12;;;;;;;4.55;3.60;;;;;;;;;;5017022;23;20076;-69
2023/07/06 00:17:47;;;;;;;3.95;3.53;;;;;;;;;;5068969;23;20087;-71
2023/07/06 00:20:13;;;;;;;3.40;3.13;;;;;;;;;;5073223;28;20032;-71
2023/07/06 00:22:39;;;;;;;5.43;3.22;;;;;;;;;;5073539;28;20067;-71
2023/07/06 00:25:05;;;;;;;5.97;3.78;;;;;;;;;;5073332;28;20056;-71
2023/07/06 00:27:31;;;;;;;3.85;3.55;;;;;;;;;;5055886;28;20526;-71
2023/07/06 00:30:03;;;;;;;5.03;3.47;;;;;;;;;;5055946;28;20032;-71
2023/07/06 00:32:31;;;;;;;3.90;3.50;;;;;;;;;;5074048;28;20016;-72
2023/07/06 00:34:57;;;;;;;6.35;3.03;;;;;;;;;;5073858;28;20103;-72
2023/07/06 00:37:23;;;;;;;3.25;2.95;;;;;;;;;;5055509;28;20582;-72
2023/07/06 00:39:49;;;;;;;3.42;3.13;;;;;;;;;;5055498;28;20024;-72
2023/07/06 00:42:15;;;;;;;3.25;2.95;;;;;;;;;;5055484;28;20027;-71
2023/07/06 00:44:46;;;;;;;3.40;3.17;;;;;;;;;;5048934;28;20548;-71
2023/07/06 00:47:12;;;;;;;3.50;3.20;;;;;;;;;;5073495;28;20515;-71
2023/07/06 00:49:39;;;;;;;4.82;3.25;;;;;;;;;;5072402;28;20078;-70
2023/07/06 00:52:06;;;;;;;4.70;3.72;;;;;;;;;;5073706;28;20032;-70
2023/07/06 00:54:35;;;;;;;3.45;3.22;;;;;;;;;;5073924;28;20112;-70
2023/07/06 00:57:02;;;;;;;4.17;3.47;;;;;;;;;;5074065;28;20056;-70
2023/07/06 00:59:29;;;;;;;4.25;3.33;;;;;;;;;;5072734;28;20584;-68
2023/07/06 01:01:56;;;;;;;3.65;3.42;;;;;;;;;;5055370;28;20020;-69
2023/07/06 01:04:21;;;;;;;4.13;3.72;;;;;;;;;;5073331;28;20031;-68
2023/07/06 01:06:49;;;;;;;5.25;3.53;;;;;;;;;;5076825;28;20040;-68
2023/07/06 01:09:15;;;;;;;4.00;3.65;;;;;;;;;;5059504;28;20372;-68
2023/07/06 01:11:44;;;;;;;3.45;3.20;;;;;;;;;;5077469;28;20028;-68
2023/07/06 01:14:13;;;;;;;4.10;3.38;;;;;;;;;;5059159;28;20012;-68
2023/07/06 01:16:45;;;;;;;3.45;3.22;;;;;;;;;;5059484;28;20457;-69
2023/07/06 01:19:29;;;;;;;3.17;2.97;;;;;;;;;;5059010;28;20060;-68
2023/07/06 01:22:13;;;;;;;3.35;2.78;;;;;;;;;;5077280;28;20031;-68
2023/07/06 01:24:47;;;;;;;3.10;2.80;;;;;;;;;;5059385;28;20033;-66
2023/07/06 01:27:25;;;;;;;3.60;3.40;;;;;;;;;;5058787;28;20075;-67
2023/07/06 01:30:00;;;;;;;4.50;3.50;;;;;;;;;;5077158;28;20056;-66
2023/07/06 01:32:27;;;;;;;3.80;3.50;;;;;;;;;;5058899;28;20064;-67
2023/07/06 01:34:57;;;;;;;4.38;3.38;;;;;;;;;;5077274;28;20410;-67
2023/07/06 01:37:29;;;;;;;3.45;3.20;;;;;;;;;;5059444;28;20089;-67
2023/07/06 01:39:54;;;;;;;3.42;3.15;;;;;;;;;;5059033;28;20074;-68
2023/07/06 01:42:40;;;;;;;4.18;3.78;;;;;;;;;;5077071;28;20368;-68
2023/07/06 01:45:20;;;;;;;6.03;3.83;;;;;;;;;;5058981;28;20047;-68
2023/07/06 01:47:48;;;;;;;5.93;4.13;;;;;;;;;;5058805;28;20563;-68
2023/07/06 01:50:16;;;;;;;4.88;4.05;;;;;;;;;;5058769;28;20031;-68
2023/07/06 01:52:50;;;;;;;7.15;5.65;;;;;;;;;;5042043;28;20475;-68
2023/07/06 01:55:31;;;;;;;6.75;5.53;;;;;;;;;;5076769;28;20025;-67
2023/07/06 03:47:14;;;;;;;5.20;3.47;;;;;;;;;;4973777;28;20039;-68
2023/07/06 03:49:40;;;;;;;3.60;3.30;;;;;;;;;;4976124;28;20034;-69
2023/07/06 03:52:06;;;;;;;3.60;3.30;;;;;;;;;;4975645;28;20039;-69
2023/07/06 03:54:31;;;;;;;4.00;3.60;;;;;;;;;;4974746;28;20057;-69
2023/07/06 03:56:57;;;;;;;5.50;3.45;;;;;;;;;;4975284;28;20117;-69
2023/07/06 03:59:23;;;;;;;6.03;3.55;;;;;;;;;;4974318;28;20038;-69
2023/07/06 04:01:48;;;;;;;3.65;3.33;;;;;;;;;;4975232;28;20027;-69
2023/07/06 04:04:15;;;;;;;5.18;3.63;;;;;;;;;;4975574;28;20555;-70
2023/07/06 04:06:41;;;;;;;5.05;3.05;;;;;;;;;;4974784;28;20066;-68
2023/07/06 04:09:08;;;;;;;4.10;3.58;;;;;;;;;;4975139;28;20097;-69
2023/07/06 04:11:34;;;;;;;3.58;2.92;;;;;;;;;;4975134;28;20462;-70
2023/07/06 04:14:00;;;;;;;6.45;3.22;;;;;;;;;;4981576;28;20102;-67
2023/07/06 04:16:25;;;;;;;3.38;3.08;;;;;;;;;;4994381;28;20347;-69
2023/07/06 04:18:51;;;;;;;4.80;3.08;;;;;;;;;;4960662;28;20088;-70
2023/07/06 04:21:19;;;;;;;3.10;2.70;;;;;;;;;;4991853;28;20034;-70
2023/07/06 04:23:47;;;;;;;3.35;3.03;;;;;;;;;;4975164;28;20407;-70
2023/07/06 04:26:14;;;;;;;3.03;2.80;;;;;;;;;;4975343;28;20105;-70
2023/07/06 04:28:40;;;;;;;3.83;3.10;;;;;;;;;;4975092;28;20022;-70
2023/07/06 04:31:06;;;;;;;5.72;3.20;;;;;;;;;;4975354;28;20557;-71
2023/07/06 04:33:31;;;;;;;6.82;3.67;;;;;;;;;;4974673;28;20202;-71
2023/07/06 04:35:56;;;;;;;4.25;3.05;;;;;;;;;;4975267;28;20031;-71
2023/07/06 04:38:22;;;;;;;4.00;3.17;;;;;;;;;;4975022;28;20034;-71
2023/07/06 04:40:49;;;;;;;4.10;3.17;;;;;;;;;;4973162;28;20058;-70
2023/07/06 04:43:15;;;;;;;3.40;3.10;;;;;;;;;;4973641;28;20125;-71
2023/07/06 04:45:40;;;;;;;5.13;3.00;;;;;;;;;;4974690;28;20077;-71
2023/07/06 04:48:06;;;;;;;3.00;2.80;;;;;;;;;;4974973;28;20042;-71
2023/07/06 04:50:32;;;;;;;3.45;3.20;;;;;;;;;;4974753;28;20114;-63
2023/07/06 04:53:07;;;;;;;3.00;2.78;;;;;;;;;;4975054;28;20018;-63
2023/07/06 04:55:33;;;;;;;4.70;3.08;;;;;;;;;;4974426;28;20038;-63
2023/07/06 04:57:58;;;;;;;4.35;3.03;;;;;;;;;;4975312;28;20050;-63
2023/07/06 05:00:26;;;;;;;4.15;3.30;;;;;;;;;;4974711;28;20027;-63
2023/07/06 05:02:52;;;;;;;4.53;2.90;;;;;;;;;;4989965;28;20053;-63
2023/07/06 05:05:18;;;;;;;4.50;2.78;;;;;;;;;;4974354;28;20333;-63
2023/07/06 05:07:45;;;;;;;4.20;2.92;;;;;;;;;;4974365;28;20030;-63
2023/07/06 05:10:12;;;;;;;7.13;2.65;;;;;;;;;;4973253;28;20487;-63
2023/07/06 05:12:39;;;;;;;4.35;2.28;;;;;;;;;;4973919;28;20034;-63
2023/07/06 05:15:05;;;;;;;4.57;3.00;;;;;;;;;;4974343;28;20106;-63
2023/07/06 05:17:31;;;;;;;3.53;3.08;;;;;;;;;;4974339;28;20034;-63
2023/07/06 05:19:58;;;;;;;4.07;2.75;;;;;;;;;;4981058;28;20113;-63
2023/07/06 05:22:23;;;;;;;6.55;3.67;;;;;;;;;;4993771;28;20038;-63
2023/07/06 05:24:49;;;;;;;4.53;3.13;;;;;;;;;;4993533;28;20038;-61
2023/07/06 05:27:15;;;;;;;4.53;3.17;;;;;;;;;;4992823;28;20049;-61
2023/07/06 05:29:40;;;;;;;5.07;2.83;;;;;;;;;;4992663;28;20022;-66
2023/07/06 05:32:07;;;;;;;4.32;2.67;;;;;;;;;;4991595;28;20562;-59
2023/07/06 05:34:33;;;;;;;4.75;2.92;;;;;;;;;;5005279;28;20485;-59
2023/07/06 05:36:58;;;;;;;3.45;2.72;;;;;;;;;;4993774;28;20363;-59
2023/07/06 05:39:24;;;;;;;5.93;2.67;;;;;;;;;;4993924;28;20022;-63
2023/07/06 05:44:46;;;;;;;3.42;2.42;;;;;;;;;;4951213;29;20047;-71
2023/07/06 05:47:11;;;;;;;3.60;2.83;;;;;;;;;;4935673;29;20040;-71
2023/07/06 05:49:38;;;;;;;3.45;3.13;;;;;;;;;;4951694;29;20114;-71
2023/07/06 05:52:04;;;;;;;2.95;2.65;;;;;;;;;;4952224;28;20042;-72
2023/07/06 05:54:29;;;;;;;3.25;2.55;;;;;;;;;;4956269;29;20030;-72
2023/07/06 05:56:57;;;;;;;4.13;2.60;;;;;;;;;;4956347;29;20511;-72
2023/07/06 05:59:24;;;;;;;4.03;2.58;;;;;;;;;;4955518;29;20094;-72
2023/07/06 06:01:50;;;;;;;4.88;2.65;;;;;;;;;;4956146;29;20066;-72
2023/07/06 06:04:15;;;;;;;4.45;2.90;;;;;;;;;;4955447;29;20058;-71
2023/07/06 06:06:46;;;;;;;3.53;2.60;;;;;;;;;;4956140;29;20483;-71
2023/07/06 06:09:12;;;;;;;6.13;2.45;;;;;;;;;;4956848;29;20479;-71
2023/07/06 06:11:38;;;;;;;6.90;2.72;;;;;;;;;;4955877;29;20027;-71
2023/07/06 06:14:03;;;;;;;3.92;2.67;;;;;;;;;;4954794;29;20369;-71
2023/07/06 06:16:28;;;;;;;2.70;2.50;;;;;;;;;;4955773;29;20126;-71
2023/07/06 06:18:57;;;;;;;3.03;2.70;;;;;;;;;;4955813;29;20382;-71
2023/07/06 06:21:22;;;;;;;3.20;2.35;;;;;;;;;;4955032;29;20126;-71
2023/07/06 06:23:47;;;;;;;2.60;2.42;;;;;;;;;;4956448;29;20115;-71
2023/07/06 06:26:13;;;;;;;3.15;2.03;;;;;;;;;;4957315;29;20038;-71
2023/07/06 06:28:38;;;;;;;3.08;2.63;;;;;;;;;;4957338;29;20464;-71
2023/07/06 06:31:03;;;;;;;4.20;2.63;;;;;;;;;;4956083;29;20058;-71
2023/07/06 06:33:29;;;;;;;3.35;2.67;;;;;;;;;;4957224;29;20019;-71
2023/07/06 06:35:56;;;;;;;5.10;2.58;;;;;;;;;;4955960;29;20114;-71
2023/07/06 06:38:21;;;;;;;4.43;2.53;;;;;;;;;;4957236;29;20047;-71
2023/07/06 06:40:46;;;;;;;4.60;2.97;;;;;;;;;;4955954;29;20035;-71
2023/07/06 06:43:12;;;;;;;5.60;2.88;;;;;;;;;;4956859;29;20488;-71
2023/07/06 06:45:39;;;;;;;4.15;2.30;;;;;;;;;;4956212;29;20067;-71
2023/07/06 06:48:05;;;;;;;2.72;2.22;;;;;;;;;;4956068;29;20032;-71
2023/07/06 06:50:31;;;;;;;5.45;2.67;;;;;;;;;;4955958;29;20388;-71
2023/07/06 06:52:56;;;;;;;3.58;2.63;;;;;;;;;;4938953;29;20090;-66
2023/07/06 06:55:22;;;;;;;3.30;2.60;;;;;;;;;;4955862;29;20032;-71
2023/07/06 06:57:48;;;;;;;3.45;2.40;;;;;;;;;;4955978;29;20028;-71
2023/07/06 07:00:14;;;;;;;3.92;2.10;;;;;;;;;;4954633;28;20035;-71
2023/07/06 07:02:40;;;;;;;4.75;2.28;;;;;;;;;;4955580;28;20107;-65
2023/07/06 07:05:06;;;;;;;4.03;2.22;;;;;;;;;;4955684;29;20610;-71
2023/07/06 07:07:31;;;;;;;3.30;2.35;;;;;;;;;;4955607;29;20078;-71
2023/07/06 07:09:57;;;;;;;2.95;2.53;;;;;;;;;;4955645;29;20030;-71
2023/07/06 07:12:22;;;;;;;3.70;2.42;;;;;;;;;;4938658;29;20036;-71
2023/07/06 07:14:48;;;;;;;4.65;2.47;;;;;;;;;;4955700;29;20019;-71
2023/07/06 07:17:13;;;;;;;2.97;2.33;;;;;;;;;;4955574;29;20042;-71
2023/07/06 07:19:39;;;;;;;6.07;2.08;;;;;;;;;;4954347;29;20480;-71
2023/07/06 07:22:06;;;;;;;7.47;2.33;;;;;;;;;;4954267;28;20122;-71
2023/07/06 07:24:32;;;;;;;4.40;2.50;;;;;;;;;;4955401;29;20043;-72
2023/07/06 07:26:57;;;;;;;3.22;2.28;;;;;;;;;;4955324;29;20039;-72
2023/07/06 07:29:23;;;;;;;3.53;2.28;;;;;;;;;;4954292;29;20027;-72
2023/07/06 07:31:49;;;;;;;4.07;2.30;;;;;;;;;;4955435;29;20037;-71
2023/07/06 07:34:15;;;;;;;2.50;2.25;;;;;;;;;;4954116;28;20039;-72
2023/07/06 07:36:40;;;;;;;3.25;2.80;;;;;;;;;;4955301;29;20027;-72
2023/07/06 07:39:05;;;;;;;3.30;2.45;;;;;;;;;;4955317;29;20042;-71
2023/07/06 07:41:31;;;;;;;3.42;2.40;;;;;;;;;;4953864;29;20054;-72
2023/07/06 07:44:03;;;;;;;2.33;2.08;;;;;;;;;;4954847;29;20047;-72
2023/07/06 07:46:29;;;;;;;5.18;2.65;;;;;;;;;;4937688;29;20031;-71
2023/07/06 07:48:55;;;;;;;3.53;2.63;;;;;;;;;;4953715;29;20059;-71
2023/07/06 07:51:23;;;;;;;2.60;2.33;;;;;;;;;;4955218;29;20055;-66
2023/07/06 07:53:48;;;;;;;3.90;2.35;;;;;;;;;;4954893;29;20028;-66
2023/07/06 07:56:15;;;;;;;4.63;2.90;;;;;;;;;;4953710;29;20455;-66
2023/07/06 07:58:40;;;;;;;2.58;2.25;;;;;;;;;;4954826;29;20051;-71
2023/07/06 08:01:07;;;;;;;2.80;1.98;;;;;;;;;;4954776;29;20521;-71
2023/07/06 08:03:33;;;;;;;5.10;2.33;;;;;;;;;;4955080;29;20031;-65
2023/07/06 08:06:02;;;;;;;2.40;2.20;;;;;;;;;;4953538;29;20413;-65
2023/07/06 08:08:28;;;;;;;2.95;1.98;;;;;;;;;;4954773;29;20118;-66
2023/07/06 08:10:54;;;;;;;5.40;2.28;;;;;;;;;;4953648;29;20479;-65
2023/07/06 08:13:20;;;;;;;3.50;2.10;;;;;;;;;;4954792;29;20460;-65
2023/07/06 08:15:47;;;;;;;3.58;2.83;;;;;;;;;;4954020;28;20361;-65
2023/07/06 08:18:12;;;;;;;3.20;2.25;;;;;;;;;;4953302;29;20038;-66
2023/07/06 08:20:38;;;;;;;2.08;1.98;;;;;;;;;;4953355;29;20392;-65
2023/07/06 08:23:10;;;;;;;2.55;2.33;;;;;;;;;;4954348;29;20048;-65
2023/07/06 08:25:37;;;;;;;2.78;2.28;;;;;;;;;;4953270;29;20106;-65
2023/07/06 08:28:03;;;;;;;4.22;3.00;;;;;;;;;;4953091;29;20373;-65
2023/07/06 08:30:28;;;;;;;4.53;2.45;;;;;;;;;;4954310;29;20418;-66
2023/07/06 08:32:54;;;;;;;2.63;2.42;;;;;;;;;;4954345;29;20023;-65
2023/07/06 08:35:19;;;;;;;3.15;2.55;;;;;;;;;;4954248;29;20027;-65
2023/07/06 08:37:45;;;;;;;3.40;2.42;;;;;;;;;;4954348;29;20365;-65
2023/07/06 08:40:17;;;;;;;4.68;2.28;;;;;;;;;;4954195;29;20069;-66
2023/07/06 08:42:46;;;;;;;3.58;2.05;;;;;;;;;;4952993;29;20043;-66
2023/07/06 08:45:22;;;;;;;3.83;1.98;;;;;;;;;;4952977;29;20027;-67
2023/07/06 08:47:48;;;;;;;3.42;1.95;;;;;;;;;;4954492;29;20158;-67
2023/07/06 08:50:15;;;;;;;2.65;2.05;;;;;;;;;;4954222;29;20062;-66
2023/07/06 08:52:42;;;;;;;5.70;2.28;;;;;;;;;;4954172;29;20034;-66
2023/07/06 08:55:11;;;;;;;2.78;2.58;;;;;;;;;;4954162;29;20066;-66
2023/07/06 08:57:36;;;;;;;2.33;2.05;;;;;;;;;;4954233;29;20101;-66
2023/07/06 09:00:02;;;;;;;3.05;2.33;;;;;;;;;;4954091;29;20058;-66
2023/07/06 09:02:30;;;;;;;2.38;2.08;;;;;;;;;;4954190;29;20058;-66
2023/07/06 09:04:59;;;;;;;3.80;2.55;;;;;;;;;;4952947;29;20031;-66
2023/07/06 09:07:32;;;;;;;3.28;2.20;;;;;;;;;;4952884;29;20050;-66
2023/07/06 09:09:58;;;;;;;3.35;2.35;;;;;;;;;;4953984;29;20031;-66
2023/07/06 09:12:25;;;;;;;2.28;2.10;;;;;;;;;;4952920;29;20490;-65
2023/07/06 09:14:52;;;;;;;3.83;2.60;;;;;;;;;;4936657;29;20029;-67
2023/07/06 09:17:17;;;;;;;4.22;2.35;;;;;;;;;;4953985;29;20388;-67
2023/07/06 09:19:43;;;;;;;3.35;2.03;;;;;;;;;;4953916;29;20074;-67
2023/07/06 09:22:11;;;;;;;3.53;2.40;;;;;;;;;;4952826;29;20028;-67
2023/07/06 09:24:37;;;;;;;4.60;1.83;;;;;;;;;;4952695;28;20042;-66
2023/07/06 09:27:10;;;;;;;3.00;2.13;;;;;;;;;;4938674;29;20043;-66
2023/07/06 09:29:37;;;;;;;3.70;2.38;;;;;;;;;;4954643;29;20032;-66
2023/07/06 09:32:11;;;;;;;3.58;2.53;;;;;;;;;;4957580;29;20042;-66
2023/07/06 09:34:38;;;;;;;3.15;2.20;;;;;;;;;;4957526;29;20487;-66
2023/07/06 09:37:04;;;;;;;3.05;1.83;;;;;;;;;;4956391;29;20031;-66
2023/07/06 09:39:29;;;;;;;2.03;1.92;;;;;;;;;;4958444;29;20361;-66
2023/07/06 09:41:57;;;;;;;2.30;2.10;;;;;;;;;;4958208;29;20426;-66
2023/07/06 09:44:27;;;;;;;3.95;2.15;;;;;;;;;;4958087;29;20055;-66
2023/07/06 09:46:55;;;;;;;3.90;2.28;;;;;;;;;;4958135;29;20464;-66
2023/07/06 09:49:21;;;;;;;4.25;2.15;;;;;;;;;;4958139;29;20042;-66
2023/07/06 09:52:05;;;;;;;3.00;2.20;;;;;;;;;;4956842;29;20093;-66
2023/07/06 09:54:33;;;;;;;5.57;2.47;;;;;;;;;;4958053;29;20399;-66
2023/07/06 09:57:00;;;;;;;3.63;2.63;;;;;;;;;;4956787;29;20032;-66
2023/07/06 09:59:26;;;;;;;3.85;2.70;;;;;;;;;;4957985;29;20035;-65
2023/07/06 10:01:55;;;;;;;2.55;2.35;;;;;;;;;;4957900;29;20027;-66
2023/07/06 10:04:36;;;;;;;2.07;1.87;;;;;;;;;;4957905;29;20035;-66
2023/07/06 10:07:05;;;;;;;2.85;1.83;;;;;;;;;;4956513;28;20510;-65
2023/07/06 10:09:33;;;;;;;3.03;2.20;;;;;;;;;;4957749;29;20042;-65
2023/07/06 10:12:06;;;;;;;3.05;2.10;;;;;;;;;;4957742;29;20035;-71
2023/07/06 10:14:37;;;;;;;2.25;2.03;;;;;;;;;;4957608;29;20368;-71
2023/07/06 10:17:14;;;;;;;2.38;2.17;;;;;;;;;;4957707;29;20043;-71
2023/07/06 10:19:55;;;;;;;1.92;1.70;;;;;;;;;;4992352;23;20516;-66
2023/07/06 10:22:41;;;;;;;2.25;1.90;;;;;;;;;;5071185;23;20052;-65
2023/07/06 10:25:09;;;;;;;2.28;2.15;;;;;;;;;;4994372;28;20065;-66
2023/07/06 10:27:43;;;;;;;5.68;2.60;;;;;;;;;;4996080;28;20030;-66
2023/07/06 10:30:16;;;;;;;2.97;2.13;;;;;;;;;;4996226;28;20034;-65
2023/07/06 10:32:46;;;;;;;2.88;2.15;;;;;;;;;;5051171;23;20049;-71
2023/07/06 10:35:15;;;;;;;2.10;2.00;;;;;;;;;;5055327;28;20063;-66
2023/07/06 10:37:42;;;;;;;2.17;1.98;;;;;;;;;;5054616;28;20032;-66
2023/07/06 10:40:11;;;;;;;3.17;2.13;;;;;;;;;;5055220;28;20049;-66
2023/07/06 10:42:41;;;;;;;2.38;1.98;;;;;;;;;;5053994;28;20407;-66
2023/07/06 10:45:06;;;;;;;;;;;;;;;;;;5054390;28;20037;-67
2023/07/06 10:47:32;;;;;;;1.77;1.67;;;;;;;;;;5054304;28;19962;-67
2023/07/06 10:50:07;;;;;;;3.28;1.58;;;;;;;;;;5054174;28;20499;-67
2023/07/06 10:52:35;;;;;;;4.50;1.85;;;;;;;;;;5052978;28;20462;-67
2023/07/06 10:55:01;;;;;;;3.00;1.63;;;;;;;;;;5054151;28;20033;-67
2023/07/06 10:57:33;;;;;;;1.95;1.73;;;;;;;;;;5052814;28;20120;-67
2023/07/06 11:00:11;;;;;;;2.85;1.77;;;;;;;;;;5052825;28;20469;-68
2023/07/06 11:02:40;;;;;;;3.70;2.05;;;;;;;;;;5053749;28;20057;-68
2023/07/06 11:05:07;;;;;;;3.58;1.73;;;;;;;;;;5052558;28;20028;-68
2023/07/06 11:07:43;;;;;;;1.80;1.70;;;;;;;;;;5052607;28;20496;-67
2023/07/06 11:10:31;;;;;;;2.72;1.80;;;;;;;;;;5053797;28;20036;-67
2023/07/06 11:13:01;;;;;;;3.45;1.88;;;;;;;;;;5052611;28;20083;-67
2023/07/06 11:15:46;;;;;;;2.97;1.77;;;;;;;;;;5052488;28;20029;-68
2023/07/06 11:18:16;;;;;;;2.63;1.75;;;;;;;;;;5053710;28;20072;-67
2023/07/06 11:20:43;;;;;;;2.30;2.10;;;;;;;;;;5053649;28;20472;-67
2023/07/06 11:23:12;;;;;;;3.35;2.00;;;;;;;;;;5052391;28;20384;-66
2023/07/06 11:25:39;;;;;;;3.05;2.13;;;;;;;;;;5052246;28;20507;-67
2023/07/06 11:28:06;;;;;;;2.58;2.38;;;;;;;;;;5053440;28;20348;-67
2023/07/06 11:30:49;;;;;;;3.63;2.05;;;;;;;;;;5052080;28;20136;-66
2023/07/06 11:33:15;;;;;;;3.53;2.53;;;;;;;;;;5051887;28;20048;-66
2023/07/06 11:35:47;;;;;;;5.30;2.97;;;;;;;;;;5053302;28;20025;-66
2023/07/06 11:38:31;;;;;;;4.72;2.47;;;;;;;;;;5051984;28;20392;-66
2023/07/06 11:41:24;;;;;;;2.40;2.20;;;;;;;;;;5053236;28;20037;-66
2023/07/06 11:43:49;;;;;;;4.03;2.30;;;;;;;;;;5053167;28;20122;-66
2023/07/06 11:46:23;;;;;;;3.00;1.92;;;;;;;;;;5051874;28;20540;-67
2023/07/06 11:48:51;;;;;;;4.43;2.20;;;;;;;;;;5053201;28;20033;-67
2023/07/06 11:51:19;;;;;;;2.38;2.10;;;;;;;;;;5052098;28;20469;-67
2023/07/06 11:53:54;;;;;;;3.40;1.80;;;;;;;;;;5052992;28;20508;-66
2023/07/06 11:56:39;;;;;;;3.03;1.95;;;;;;;;;;5052089;28;20028;-66
2023/07/06 11:59:15;;;;;;;1.83;1.73;;;;;;;;;;5051613;28;20025;-66
2023/07/06 12:01:47;;;;;;;3.13;2.08;;;;;;;;;;5052996;28;20036;-66
2023/07/06 12:04:14;;;;;;;3.53;1.95;;;;;;;;;;5051452;28;20366;-66
2023/07/06 12:06:39;;;;;;;4.63;2.30;;;;;;;;;;5051417;28;20032;-66
2023/07/06 12:09:08;;;;;;;2.65;2.25;;;;;;;;;;5052770;28;20393;-66
2023/07/06 12:11:33;;;;;;;2.22;2.13;;;;;;;;;;5052573;28;20470;-66
2023/07/06 12:13:59;;;;;;;11.38;10.07;;;;;;;;;;5051392;28;20063;-65
2023/07/06 12:16:27;;;;;;;4.15;3.60;;;;;;;;;;5035030;28;20094;-66
2023/07/06 12:19:03;;;;;;;2.40;2.20;;;;;;;;;;5052406;28;20021;-66
2023/07/06 12:21:33;;;;;;;4.07;2.65;;;;;;;;;;5051345;28;20021;-66
2023/07/06 12:23:59;;;;;;;4.10;2.40;;;;;;;;;;5034691;28;20442;-66
2023/07/06 12:26:29;;;;;;;2.33;2.10;;;;;;;;;;5051089;28;20032;-66
2023/07/06 12:28:58;;;;;;;2.65;2.22;;;;;;;;;;5052458;28;20500;-66
2023/07/06 12:31:24;;;;;;;3.40;2.30;;;;;;;;;;5052368;28;20017;-71
2023/07/06 12:33:59;;;;;;;2.90;2.05;;;;;;;;;;5050934;28;20041;-71
2023/07/06 12:36:28;;;;;;;3.00;1.95;;;;;;;;;;5052211;28;20384;-71
2023/07/06 12:38:53;;;;;;;2.47;2.28;;;;;;;;;;5052310;28;20457;-72
2023/07/06 12:41:19;;;;;;;4.35;2.33;;;;;;;;;;5052231;28;20070;-71
2023/07/06 12:43:45;;;;;;;2.53;1.83;;;;;;;;;;5052275;28;20036;-66
2023/07/06 12:46:12;;;;;;;2.45;1.90;;;;;;;;;;5051127;28;20044;-65
2023/07/06 12:48:41;;;;;;;2.55;1.77;;;;;;;;;;5051658;28;20043;-66
2023/07/06 12:51:10;;;;;;;2.77;2.17;;;;;;;;;;5052954;28;20469;-66
2023/07/06 12:53:37;;;;;;;2.05;1.95;;;;;;;;;;5053417;28;20063;-71
2023/07/06 12:56:08;;;;;;;3.08;2.22;;;;;;;;;;5052603;28;20025;-71
2023/07/06 12:58:35;;;;;;;2.17;1.98;;;;;;;;;;5051128;28;20535;-73
2023/07/06 13:01:00;;;;;;;2.53;2.13;;;;;;;;;;5051725;28;20025;-72
2023/07/06 13:03:26;;;;;;;2.15;1.95;;;;;;;;;;5055590;28;20028;-72
2023/07/06 13:05:53;;;;;;;1.92;1.83;;;;;;;;;;5055631;28;20052;-72
2023/07/06 13:08:20;;;;;;;3.60;2.28;;;;;;;;;;5055311;28;20423;-72
2023/07/06 13:10:54;;;;;;;4.75;2.20;;;;;;;;;;5056632;28;20087;-72
2023/07/06 13:13:20;;;;;;;2.13;1.92;;;;;;;;;;5056546;28;20635;-72
2023/07/06 13:15:46;;;;;;;2.28;1.85;;;;;;;;;;5056770;28;20036;-67
2023/07/06 13:18:16;;;;;;;3.67;2.17;;;;;;;;;;5057103;28;20041;-67
2023/07/06 13:20:42;;;;;;;3.55;3.17;;;;;;;;;;5057204;28;20029;-64
2023/07/06 13:23:13;;;;;;;2.30;2.10;;;;;;;;;;5056256;28;20037;-64
2023/07/06 13:25:44;;;;;;;3.60;3.13;;;;;;;;;;5056623;28;20103;-64
2023/07/06 13:28:11;;;;;;;3.90;3.60;;;;;;;;;;5056075;28;20033;-70
2023/07/06 13:30:37;;;;;;;3.63;2.92;;;;;;;;;;5055947;28;20380;-72
2023/07/06 13:33:03;;;;;;;4.35;3.00;;;;;;;;;;5057068;28;20536;-71
2023/07/06 13:35:28;;;;;;;3.83;3.30;;;;;;;;;;5057496;28;20049;-71
2023/07/06 13:37:54;;;;;;;4.47;3.83;;;;;;;;;;5057007;28;20358;-72
2023/07/06 13:40:22;;;;;;;3.15;2.85;;;;;;;;;;5057419;28;20025;-62
2023/07/06 13:42:52;;;;;;;5.72;2.85;;;;;;;;;;5055447;28;20468;-62
2023/07/06 13:45:24;;;;;;;3.00;2.80;;;;;;;;;;5056957;28;20071;-63
2023/07/06 13:47:52;;;;;;;4.10;2.70;;;;;;;;;;5054844;28;20170;-63
2023/07/06 13:50:20;;;;;;;4.53;3.13;;;;;;;;;;5056642;28;20025;-62
2023/07/06 13:52:46;;;;;;;2.50;2.25;;;;;;;;;;5056231;28;20025;-65
2023/07/06 13:55:28;;;;;;;3.53;3.10;;;;;;;;;;5056080;28;20479;-65
2023/07/06 13:57:53;;;;;;;8.20;2.60;;;;;;;;;;5054722;28;20471;-66
2023/07/06 14:00:19;;;;;;;2.50;2.30;;;;;;;;;;5055734;28;20021;-65
2023/07/06 14:02:47;;;;;;;2.63;2.42;;;;;;;;;;5056054;28;20527;-65
2023/07/06 14:05:14;;;;;;;3.03;2.30;;;;;;;;;;5054683;28;20112;-65
2023/07/06 14:07:39;;;;;;;4.10;2.25;;;;;;;;;;5054516;28;20037;-65
2023/07/06 14:10:06;;;;;;;2.85;2.22;;;;;;;;;;5055871;28;20108;-66
2023/07/06 14:12:31;;;;;;;3.38;3.00;;;;;;;;;;5054879;28;20530;-66
2023/07/06 14:14:56;;;;;;;5.20;3.00;;;;;;;;;;5054351;28;20033;-65
2023/07/06 14:17:22;;;;;;;4.63;3.20;;;;;;;;;;5055662;28;20020;-65
2023/07/06 14:19:48;;;;;;;2.55;2.15;;;;;;;;;;5054391;28;20518;-65
2023/07/06 14:22:14;;;;;;;2.78;2.58;;;;;;;;;;5055621;28;20028;-65
2023/07/06 14:24:40;;;;;;;3.22;2.92;;;;;;;;;;5054422;28;20033;-66
2023/07/06 14:27:06;;;;;;;2.42;2.22;;;;;;;;;;5055189;28;20055;-65
2023/07/06 14:29:31;;;;;;;3.97;2.67;;;;;;;;;;5055318;28;20461;-65
2023/07/06 14:31:58;;;;;;;2.70;2.50;;;;;;;;;;5055240;28;20020;-65
2023/07/06 14:34:24;;;;;;;4.32;2.55;;;;;;;;;;5054026;28;20098;-65
2023/07/06 14:36:49;;;;;;;3.70;2.65;;;;;;;;;;5055306;28;20484;-66
2023/07/06 14:39:17;;;;;;;3.08;2.60;;;;;;;;;;5055052;28;20052;-66
2023/07/06 14:41:43;;;;;;;2.50;2.33;;;;;;;;;;5055046;28;20108;-65
2023/07/06 14:44:09;;;;;;;3.65;2.63;;;;;;;;;;5055039;28;20061;-65
2023/07/06 14:46:35;;;;;;;3.10;2.72;;;;;;;;;;5050834;28;20021;-67
2023/07/06 14:49:00;;;;;;;4.05;3.05;;;;;;;;;;5054994;28;20036;-66
2023/07/06 14:51:25;;;;;;;5.32;3.20;;;;;;;;;;5054450;28;20074;-68
2023/07/06 14:53:51;;;;;;;4.72;3.03;;;;;;;;;;5053060;28;20078;-69
2023/07/06 14:56:18;;;;;;;2.83;2.63;;;;;;;;;;5054183;28;20029;-69
2023/07/06 14:58:43;;;;;;;4.68;2.97;;;;;;;;;;5052929;28;20021;-67
2023/07/06 15:01:09;;;;;;;2.60;2.38;;;;;;;;;;5054241;28;20033;-68
2023/07/06 15:03:34;;;;;;;2.92;2.72;;;;;;;;;;5054055;28;20021;-66
2023/07/06 15:06:00;;;;;;;3.00;2.67;;;;;;;;;;5054069;28;20055;-65
2023/07/06 15:08:26;;;;;;;3.05;2.80;;;;;;;;;;5053817;28;20028;-66
2023/07/06 15:10:51;;;;;;;2.97;2.78;;;;;;;;;;5053771;28;20033;-70
2023/07/06 15:13:16;;;;;;;3.15;2.88;;;;;;;;;;5053926;28;20079;-72
2023/07/06 15:15:42;;;;;;;3.17;2.47;;;;;;;;;;5051105;28;20584;-71
2023/07/06 15:18:07;;;;;;;5.30;3.15;;;;;;;;;;5053022;28;20125;-71
2023/07/06 15:20:33;;;;;;;4.07;2.90;;;;;;;;;;5053123;28;20096;-71
2023/07/06 15:22:59;;;;;;;3.95;2.60;;;;;;;;;;5053671;28;20100;-71
2023/07/06 15:25:24;;;;;;;2.88;2.65;;;;;;;;;;5051705;28;20293;-71
2023/07/06 15:27:49;;;;;;;2.85;2.58;;;;;;;;;;5053430;28;20033;-71
2023/07/06 15:30:15;;;;;;;5.57;3.15;;;;;;;;;;5051581;28;20021;-71
2023/07/06 15:32:40;;;;;;;3.35;2.75;;;;;;;;;;5050194;28;20059;-72
2023/07/06 15:35:06;;;;;;;3.08;2.88;;;;;;;;;;5052136;28;20029;-71
2023/07/06 15:37:31;;;;;;;2.80;2.38;;;;;;;;;;5051430;28;20032;-71
2023/07/06 15:39:57;;;;;;;3.17;2.90;;;;;;;;;;5052200;28;20036;-71
2023/07/06 15:42:23;;;;;;;2.72;2.53;;;;;;;;;;5050344;28;20129;-72
2023/07/06 15:44:48;;;;;;;3.50;2.90;;;;;;;;;;5052177;28;20032;-71
2023/07/06 15:47:13;;;;;;;3.22;2.90;;;;;;;;;;5053352;28;20044;-65
2023/07/06 15:49:39;;;;;;;2.78;2.47;;;;;;;;;;5052662;28;20025;-71
2023/07/06 15:52:04;;;;;;;3.45;2.75;;;;;;;;;;5035871;28;20119;-71
2023/07/06 15:54:29;;;;;;;3.15;2.95;;;;;;;;;;5054002;28;20025;-71
2023/07/06 15:56:55;;;;;;;3.15;2.85;;;;;;;;;;5053371;28;20029;-71
2023/07/06 15:59:20;;;;;;;3.38;2.75;;;;;;;;;;5052215;28;20051;-72
2023/07/06 16:01:46;;;;;;;5.13;2.85;;;;;;;;;;5053821;28;20036;-71
2023/07/06 16:04:12;;;;;;;3.13;2.85;;;;;;;;;;5052892;28;20025;-71
2023/07/06 16:06:40;;;;;;;4.68;2.97;;;;;;;;;;5051563;28;20366;-71
2023/07/06 16:09:06;;;;;;;2.63;2.42;;;;;;;;;;5052339;28;20388;-71
2023/07/06 16:11:33;;;;;;;4.20;2.78;;;;;;;;;;5053600;28;20025;-71
2023/07/06 16:13:58;;;;;;;3.33;2.55;;;;;;;;;;5052314;28;20044;-71
2023/07/06 16:16:23;;;;;;;2.92;2.63;;;;;;;;;;5053363;28;20025;-71
2023/07/06 16:18:49;;;;;;;3.10;2.80;;;;;;;;;;5032881;28;20025;-71
2023/07/06 16:21:14;;;;;;;4.18;2.63;;;;;;;;;;5032042;28;20025;-71
2023/07/06 16:23:43;;;;;;;3.00;2.80;;;;;;;;;;5033420;28;20025;-71
2023/07/06 16:26:09;;;;;;;4.53;2.90;;;;;;;;;;5033311;28;20132;-72
2023/07/06 16:28:36;;;;;;;3.47;2.90;;;;;;;;;;5049011;28;20037;-66
2023/07/06 16:31:01;;;;;;;2.90;2.63;;;;;;;;;;5052885;28;20120;-66
2023/07/06 16:33:26;;;;;;;3.95;2.95;;;;;;;;;;5052475;28;20393;-67
2023/07/06 16:35:52;;;;;;;2.80;2.60;;;;;;;;;;5052494;28;20140;-66
2023/07/06 16:38:17;;;;;;;4.20;3.38;;;;;;;;;;5052826;28;20094;-66